createdAt,value
2023-05-19T00:02:27.251Z,8.68
2023-05-19T00:05:31.234Z,7.85
2023-05-19T00:08:35.161Z,8.03
2023-05-19T00:11:40.830Z,8.97
2023-05-19T00:14:44.180Z,8.43
2023-05-19T00:17:47.800Z,8.68
2023-05-19T00:20:52.516Z,8.38
2023-05-19T00:23:56.448Z,7.70
2023-05-19T00:26:59.814Z,8.00
2023-05-19T00:30:03.157Z,7.57
2023-05-19T00:33:06.486Z,8.00
2023-05-19T00:36:10.359Z,8.05
2023-05-19T00:39:13.657Z,8.77
2023-05-19T00:42:17.941Z,8.43
2023-05-19T00:45:21.149Z,8.73
2023-05-19T00:48:26.136Z,8.57
2023-05-19T00:51:29.939Z,8.15
2023-05-19T00:54:36.582Z,8.23
2023-05-19T00:57:39.991Z,7.80
2023-05-19T01:00:44.496Z,9.27
2023-05-19T01:03:49.143Z,9.10
2023-05-19T01:06:55.931Z,8.55
2023-05-19T01:10:00.171Z,9.07
2023-05-19T01:13:05.756Z,8.70
2023-05-19T01:16:21.529Z,8.68
2023-05-19T01:19:37.139Z,8.63
2023-05-19T01:23:01.995Z,8.43
2023-05-19T01:26:30.386Z,9.20
2023-05-19T01:29:45.770Z,8.80
2023-05-19T01:32:51.653Z,9.73
2023-05-19T01:35:56.663Z,9.38
2023-05-19T01:39:02.374Z,8.57
2023-05-19T01:42:06.871Z,9.40
2023-05-19T01:45:11.634Z,9.83
2023-05-19T01:48:15.545Z,9.25
2023-05-19T01:51:19.189Z,9.40
2023-05-19T01:54:22.770Z,9.35
2023-05-19T01:57:50.949Z,9.90
2023-05-19T02:01:15.876Z,10.07
2023-05-19T02:04:32.570Z,8.93
2023-05-19T02:07:45.259Z,9.20
2023-05-19T02:10:55.553Z,9.10
2023-05-19T02:14:03.092Z,8.90
2023-05-19T02:17:06.755Z,9.27
2023-05-19T02:20:10.477Z,8.98
2023-05-19T02:23:13.839Z,9.23
2023-05-19T02:26:17.025Z,9.13
2023-05-19T02:29:21.476Z,9.13
2023-05-19T02:32:26.539Z,9.57
2023-05-19T02:35:29.927Z,10.48
2023-05-19T02:38:33.041Z,10.18
2023-05-19T02:41:36.928Z,9.80
2023-05-19T02:44:40.352Z,9.70
2023-05-19T02:47:43.747Z,9.10
2023-05-19T02:50:47.065Z,9.82
2023-05-19T02:53:51.042Z,10.27
2023-05-19T02:56:54.227Z,9.40
2023-05-19T02:59:57.895Z,9.40
2023-05-19T03:03:03.025Z,8.20
2023-05-19T03:06:08.843Z,8.48
2023-05-19T03:09:11.977Z,8.30
2023-05-19T03:12:15.453Z,8.18
2023-05-19T03:15:19.410Z,7.47
2023-05-19T03:18:24.958Z,7.50
2023-05-19T03:21:30.469Z,7.47
2023-05-19T03:24:35.066Z,7.20
2023-05-19T03:27:38.542Z,7.10
2023-05-19T03:30:42.459Z,6.30
2023-05-19T03:33:45.929Z,6.85
2023-05-19T03:36:50.489Z,6.50
2023-05-19T03:39:53.697Z,5.85
2023-05-19T03:42:57.347Z,6.95
2023-05-19T03:46:01.008Z,6.90
2023-05-19T03:49:06.591Z,6.50
2023-05-19T03:52:11.103Z,6.75
2023-05-19T03:55:20.338Z,6.40
2023-05-19T03:58:24.233Z,6.97
2023-05-19T04:01:29.806Z,8.83
2023-05-19T04:04:34.184Z,8.07
2023-05-19T04:07:37.345Z,7.15
2023-05-19T04:10:40.792Z,6.80
2023-05-19T04:13:45.195Z,6.12
2023-05-19T04:16:49.067Z,6.27
2023-05-19T04:19:55.765Z,5.63
2023-05-19T04:22:59.224Z,5.70
2023-05-19T04:26:06.332Z,5.30
2023-05-19T04:29:10.898Z,4.43
2023-05-19T04:32:17.985Z,5.00
2023-05-19T04:35:22.712Z,5.10
2023-05-19T04:38:26.294Z,5.45
2023-05-19T04:41:29.682Z,5.00
2023-05-19T04:44:33.824Z,4.68
2023-05-19T04:47:38.277Z,4.63
2023-05-19T04:50:42.460Z,5.10
2023-05-19T04:53:47.471Z,4.00
2023-05-19T04:56:50.818Z,3.70
2023-05-19T05:00:00.416Z,4.03
2023-05-19T05:03:07.982Z,2.80
2023-05-19T05:06:12.222Z,2.77
2023-05-19T05:09:17.007Z,3.00
2023-05-19T05:12:22.100Z,2.65
2023-05-19T05:15:28.977Z,3.00
2023-05-19T05:18:34.867Z,2.67
2023-05-19T05:21:38.684Z,2.70
2023-05-19T05:24:45.408Z,2.62
2023-05-19T05:27:49.672Z,2.20
2023-05-19T05:30:56.606Z,2.70
2023-05-19T05:34:00.461Z,2.70
2023-05-19T05:37:04.392Z,2.47
2023-05-19T05:40:08.615Z,2.37
2023-05-19T05:43:13.071Z,2.92
2023-05-19T05:46:17.229Z,2.70
2023-05-19T05:49:21.190Z,2.70
2023-05-19T05:52:29.972Z,2.60
2023-05-19T05:55:36.266Z,2.40
2023-05-19T05:58:41.474Z,2.70
2023-05-19T06:01:45.198Z,2.60
2023-05-19T06:04:48.654Z,3.17
2023-05-19T06:07:52.072Z,3.60
2023-05-19T06:10:55.744Z,2.58
2023-05-19T06:13:59.115Z,2.83
2023-05-19T06:17:05.499Z,2.78
2023-05-19T06:20:10.291Z,2.80
2023-05-19T06:23:14.027Z,2.60
2023-05-19T06:26:17.338Z,2.75
2023-05-19T06:29:21.129Z,3.00
2023-05-19T06:32:24.597Z,2.20
2023-05-19T06:35:28.406Z,2.10
2023-05-19T06:38:31.731Z,2.03
2023-05-19T06:41:35.453Z,2.15
2023-05-19T06:44:39.475Z,2.10
2023-05-19T06:47:45.742Z,2.30
2023-05-19T06:50:51.077Z,2.50
2023-05-19T06:53:55.999Z,2.27
2023-05-19T06:56:59.606Z,2.58
2023-05-19T07:00:13.431Z,2.12
2023-05-19T07:03:18.846Z,1.90
2023-05-19T07:06:22.539Z,2.73
2023-05-19T07:09:29.941Z,2.10
2023-05-19T07:12:33.417Z,63.05
2023-05-19T07:15:38.403Z,7.65
2023-05-19T07:18:45.207Z,2.90
2023-05-19T07:21:48.636Z,5.47
2023-05-19T07:24:52.901Z,2.50
2023-05-19T07:27:57.788Z,2.40
2023-05-19T07:31:01.620Z,2.62
2023-05-19T07:34:05.182Z,4.78
2023-05-19T07:37:08.633Z,2.00
2023-05-19T07:40:12.147Z,15.50
2023-05-19T07:43:15.743Z,13.77
2023-05-19T07:46:19.004Z,2.42
2023-05-19T07:49:22.602Z,2.58
2023-05-19T07:52:27.737Z,3.50
2023-05-19T07:55:31.213Z,5.10
2023-05-19T07:58:34.382Z,2.40
2023-05-19T08:01:37.736Z,2.60
2023-05-19T08:04:41.187Z,4.50
2023-05-19T08:07:44.239Z,4.57
2023-05-19T08:10:47.854Z,2.77
2023-05-19T08:13:51.911Z,3.10
2023-05-19T08:16:56.760Z,2.53
2023-05-19T08:20:00.535Z,2.92
2023-05-19T08:23:04.710Z,2.70
2023-05-19T08:26:07.868Z,2.60
2023-05-19T08:29:11.254Z,2.65
2023-05-19T08:32:14.341Z,2.60
2023-05-19T08:35:17.844Z,2.60
2023-05-19T08:38:21.157Z,2.40
2023-05-19T08:41:24.600Z,2.73
2023-05-19T08:44:27.921Z,2.60
2023-05-19T08:47:32.875Z,3.17
2023-05-19T08:50:40.403Z,2.50
2023-05-19T08:53:50.874Z,2.50
2023-05-19T08:56:56.089Z,2.50
2023-05-19T09:00:00.331Z,2.05
2023-05-19T09:03:17.446Z,2.62
2023-05-19T09:06:23.469Z,2.35
2023-05-19T09:09:26.793Z,2.13
2023-05-19T09:12:30.509Z,2.87
2023-05-19T09:15:37.067Z,2.40
2023-05-19T09:18:43.266Z,2.28
2023-05-19T09:21:46.596Z,2.37
2023-05-19T09:24:50.062Z,2.47
2023-05-19T09:27:55.457Z,2.67
2023-05-19T09:31:07.978Z,2.47
2023-05-19T09:34:14.388Z,2.53
2023-05-19T09:37:23.290Z,2.60
2023-05-19T09:40:28.963Z,2.30
2023-05-19T09:43:34.622Z,2.47
2023-05-19T09:46:38.041Z,2.50
2023-05-19T09:49:47.572Z,2.60
2023-05-19T09:52:53.167Z,2.40
2023-05-19T09:55:58.169Z,2.47
2023-05-19T09:59:04.831Z,2.37
2023-05-19T10:02:15.960Z,2.53
2023-05-19T10:05:20.948Z,2.22
2023-05-19T10:08:26.708Z,3.00
2023-05-19T10:11:31.115Z,2.70
2023-05-19T10:14:34.440Z,3.07
2023-05-19T10:17:42.700Z,2.80
2023-05-19T10:20:47.840Z,2.70
2023-05-19T10:23:51.224Z,2.58
2023-05-19T10:27:03.972Z,2.80
2023-05-19T10:30:22.130Z,3.00
2023-05-19T10:33:44.030Z,3.40
2023-05-19T10:36:55.950Z,2.80
2023-05-19T10:39:59.975Z,2.60
2023-05-19T10:43:18.377Z,2.40
2023-05-19T10:46:27.096Z,2.57
2023-05-19T10:49:36.052Z,3.17
2023-05-19T10:52:40.792Z,2.95
2023-05-19T10:55:59.262Z,3.00
2023-05-19T10:59:03.897Z,2.73
2023-05-19T11:02:08.924Z,2.70
2023-05-19T11:05:14.806Z,2.70
2023-05-19T11:08:33.727Z,2.83
2023-05-19T11:12:04.108Z,2.35
2023-05-19T11:15:10.617Z,3.30
2023-05-19T11:18:17.783Z,2.60
2023-05-19T11:21:21.149Z,2.80
2023-05-19T11:24:44.480Z,2.42
2023-05-19T11:27:47.898Z,2.85
2023-05-19T11:30:54.751Z,2.50
2023-05-19T11:33:58.713Z,2.27
2023-05-19T11:37:01.877Z,2.30
2023-05-19T11:40:09.759Z,2.12
2023-05-19T11:43:12.840Z,2.30
2023-05-19T11:46:17.742Z,2.60
2023-05-19T11:49:20.939Z,2.23
2023-05-19T11:52:27.646Z,2.70
2023-05-19T11:55:30.883Z,2.25
2023-05-19T11:58:34.459Z,2.53
2023-05-19T12:01:37.633Z,2.00
2023-05-19T12:04:41.178Z,2.07
2023-05-19T12:07:44.532Z,2.33
2023-05-19T12:10:52.610Z,2.00
2023-05-19T12:13:59.099Z,2.25
2023-05-19T12:17:14.260Z,2.40
2023-05-19T12:20:19.968Z,2.00
2023-05-19T12:23:25.262Z,2.55
2023-05-19T12:26:28.406Z,2.30
2023-05-19T12:29:33.146Z,2.00
2023-05-19T12:32:36.607Z,2.53
2023-05-19T12:35:40.028Z,2.60
2023-05-19T12:38:43.859Z,2.25
2023-05-19T12:41:47.425Z,2.12
2023-05-19T12:44:52.712Z,2.37
2023-05-19T12:47:56.497Z,2.17
2023-05-19T12:51:01.654Z,1.77
2023-05-19T12:54:05.152Z,2.03
2023-05-19T12:57:11.300Z,2.42
2023-05-19T13:00:19.083Z,3.80
2023-05-19T13:03:22.472Z,2.23
2023-05-19T13:06:26.204Z,2.40
2023-05-19T13:09:29.337Z,2.45
2023-05-19T13:12:32.846Z,2.40
2023-05-19T13:15:40.600Z,2.35
2023-05-19T13:18:44.174Z,2.27
2023-05-19T13:21:51.285Z,2.17
2023-05-19T13:24:54.619Z,2.30
2023-05-19T13:27:59.554Z,2.22
2023-05-19T13:31:02.992Z,2.45
2023-05-19T13:34:06.320Z,2.30
2023-05-19T13:37:10.300Z,2.13
2023-05-19T13:40:15.055Z,2.30
2023-05-19T13:43:18.543Z,2.10
2023-05-19T13:46:32.775Z,2.30
2023-05-19T13:49:46.579Z,2.00
2023-05-19T13:52:49.781Z,2.40
2023-05-19T13:55:55.285Z,2.20
2023-05-19T13:58:58.634Z,2.30
2023-05-19T14:02:06.655Z,2.28
2023-05-19T14:05:11.078Z,1.90
2023-05-19T14:08:14.468Z,2.20
2023-05-19T14:11:22.772Z,2.37
2023-05-19T14:14:26.136Z,3.83
2023-05-19T14:17:29.612Z,2.60
2023-05-19T14:20:33.254Z,3.57
2023-05-19T14:23:36.873Z,2.50
2023-05-19T14:26:40.122Z,2.25
2023-05-19T14:29:43.684Z,2.70
2023-05-19T14:32:46.839Z,2.35
2023-05-19T14:35:50.685Z,2.37
2023-05-19T14:38:53.765Z,2.30
2023-05-19T14:41:59.703Z,2.87
2023-05-19T14:45:02.816Z,2.35
2023-05-19T14:48:06.607Z,2.95
2023-05-19T14:51:09.937Z,2.97
2023-05-19T14:54:13.373Z,2.43
2023-05-19T14:57:16.645Z,2.72
2023-05-19T15:00:20.181Z,2.47
2023-05-19T15:03:23.544Z,3.40
2023-05-19T15:06:27.063Z,2.63
2023-05-19T15:09:30.090Z,2.90
2023-05-19T15:12:33.798Z,2.80
2023-05-19T15:15:36.964Z,2.60
2023-05-19T15:18:40.582Z,2.33
2023-05-19T15:21:45.724Z,2.30
2023-05-19T15:24:49.143Z,2.17
2023-05-19T15:27:52.282Z,2.95
2023-05-19T15:30:55.916Z,2.55
2023-05-19T15:33:59.112Z,2.47
2023-05-19T15:37:02.565Z,2.23
2023-05-19T15:40:06.612Z,2.37
2023-05-19T15:43:10.031Z,2.70
2023-05-19T15:46:13.474Z,2.58
2023-05-19T15:49:18.071Z,2.28
2023-05-19T15:52:21.457Z,2.70
2023-05-19T15:55:24.860Z,2.87
2023-05-19T15:58:28.046Z,2.80
2023-05-19T16:01:32.625Z,2.70
2023-05-19T16:04:36.188Z,2.78
2023-05-19T16:07:39.375Z,2.60
2023-05-19T16:10:42.746Z,2.77
2023-05-19T16:13:46.530Z,2.60
2023-05-19T16:16:49.947Z,2.67
2023-05-19T16:19:53.182Z,2.72
2023-05-19T16:22:56.646Z,2.60
2023-05-19T16:25:59.647Z,2.33
2023-05-19T16:29:03.197Z,2.50
2023-05-19T16:32:06.805Z,2.60
2023-05-19T16:35:11.056Z,2.78
2023-05-19T16:38:14.213Z,2.43
2023-05-19T16:41:17.649Z,2.80
2023-05-19T16:44:21.009Z,3.12
2023-05-19T16:47:25.568Z,2.72
2023-05-19T16:50:28.683Z,2.42
2023-05-19T16:53:33.258Z,3.00
2023-05-19T16:56:36.452Z,3.03
2023-05-19T16:59:39.996Z,2.80
2023-05-19T17:02:43.261Z,3.00
2023-05-19T17:05:46.837Z,3.47
2023-05-19T17:08:50.078Z,3.67
2023-05-19T17:11:54.179Z,3.53
2023-05-19T17:14:57.619Z,3.60
2023-05-19T17:18:01.091Z,3.40
2023-05-19T17:21:05.571Z,4.12
2023-05-19T17:24:09.193Z,3.37
2023-05-19T17:27:12.308Z,3.50
2023-05-19T17:30:16.635Z,3.87
2023-05-19T17:33:19.891Z,3.33
2023-05-19T17:36:23.348Z,4.62
2023-05-19T17:39:26.505Z,4.10
2023-05-19T17:42:31.773Z,4.07
2023-05-19T17:45:35.225Z,4.50
2023-05-19T17:48:40.034Z,7.07
2023-05-19T17:51:43.563Z,6.87
2023-05-19T17:54:47.180Z,5.00
2023-05-19T17:57:50.801Z,4.80
2023-05-19T18:00:55.292Z,5.10
2023-05-19T18:03:59.229Z,4.68
2023-05-19T18:07:03.775Z,6.47
2023-05-19T18:10:08.460Z,14.73
2023-05-19T18:13:14.419Z,9.00
2023-05-19T18:16:17.809Z,6.68
2023-05-19T18:19:20.962Z,8.50
2023-05-19T18:22:24.491Z,6.78
2023-05-19T18:25:27.781Z,7.00
2023-05-19T18:28:31.171Z,11.73
2023-05-19T18:31:35.712Z,14.82
2023-05-19T18:34:39.228Z,11.40
2023-05-19T18:37:42.597Z,10.90
2023-05-19T18:40:46.178Z,11.10
2023-05-19T18:43:49.357Z,10.70
2023-05-19T18:46:53.728Z,12.63
2023-05-19T18:49:56.871Z,11.38
2023-05-19T18:53:00.661Z,9.00
2023-05-19T18:56:04.263Z,9.33
2023-05-19T18:59:09.977Z,7.90
2023-05-19T19:02:13.381Z,11.32
2023-05-19T19:05:16.798Z,10.10
2023-05-19T19:08:20.087Z,9.93
2023-05-19T19:11:23.772Z,11.03
2023-05-19T19:14:26.985Z,10.67
2023-05-19T19:17:30.883Z,10.13
2023-05-19T19:20:34.968Z,10.23
2023-05-19T19:23:39.819Z,9.07
2023-05-19T19:26:42.927Z,9.03
2023-05-19T19:29:51.292Z,9.43
2023-05-19T19:32:56.726Z,9.45
2023-05-19T19:36:00.899Z,10.23
2023-05-19T19:39:04.149Z,10.30
2023-05-19T19:42:07.591Z,10.87
2023-05-19T19:45:13.100Z,9.90
2023-05-19T19:48:18.212Z,10.30
2023-05-19T19:51:21.424Z,10.40
2023-05-19T19:54:25.011Z,10.40
2023-05-19T19:57:29.371Z,10.40
2023-05-19T20:00:33.277Z,9.63
2023-05-19T20:03:37.435Z,10.32
2023-05-19T20:06:41.085Z,10.52
2023-05-19T20:09:44.607Z,10.70
2023-05-19T20:12:48.022Z,11.33
2023-05-19T20:15:51.654Z,11.53
2023-05-19T20:18:54.908Z,11.45
2023-05-19T20:21:58.379Z,11.40
2023-05-19T20:25:02.016Z,13.00
2023-05-19T20:28:05.385Z,14.47
2023-05-19T20:31:09.457Z,11.83
2023-05-19T20:34:12.956Z,11.43
2023-05-19T20:37:17.446Z,10.75
2023-05-19T20:40:20.878Z,9.75
2023-05-19T20:43:24.178Z,10.27
2023-05-19T20:46:27.891Z,9.47
2023-05-19T20:49:31.347Z,10.20
2023-05-19T20:52:34.860Z,9.75
2023-05-19T20:55:39.174Z,9.15
2023-05-19T20:58:43.126Z,8.53
2023-05-19T21:01:46.512Z,9.10
2023-05-19T21:04:50.939Z,8.90
2023-05-19T21:07:54.157Z,8.27
2023-05-19T21:10:57.539Z,8.13
2023-05-19T21:14:04.372Z,8.00
2023-05-19T21:17:08.371Z,7.80
2023-05-19T21:20:12.712Z,7.78
2023-05-19T21:23:16.181Z,7.37
2023-05-19T21:26:19.470Z,7.65
2023-05-19T21:29:22.887Z,8.30
2023-05-19T21:32:26.288Z,7.73
2023-05-19T21:35:29.725Z,7.82
2023-05-19T21:38:32.844Z,7.47
2023-05-19T21:41:36.390Z,8.43
2023-05-19T21:44:39.555Z,8.80
2023-05-19T21:47:43.147Z,9.07
2023-05-19T21:50:46.257Z,9.65
2023-05-19T21:53:49.784Z,11.30
2023-05-19T21:56:53.019Z,11.10
2023-05-19T21:59:56.632Z,11.13
2023-05-19T22:03:00.422Z,10.53
2023-05-19T22:06:06.518Z,10.88
2023-05-19T22:09:11.100Z,10.82
2023-05-19T22:12:14.462Z,10.63
2023-05-19T22:15:18.575Z,11.23
2023-05-19T22:18:22.124Z,10.73
2023-05-19T22:21:25.293Z,10.27
2023-05-19T22:24:28.778Z,10.93
2023-05-19T22:27:32.177Z,11.57
2023-05-19T22:30:38.498Z,10.67
2023-05-19T22:33:43.002Z,11.53
2023-05-19T22:36:46.416Z,11.40
2023-05-19T22:39:49.610Z,11.73
2023-05-19T22:42:53.055Z,11.80
2023-05-19T22:45:56.409Z,12.20
2023-05-19T22:49:00.159Z,11.33
2023-05-19T22:52:03.385Z,11.02
2023-05-19T22:55:07.485Z,11.40
2023-05-19T22:58:10.795Z,11.57
2023-05-19T23:01:14.236Z,11.53
2023-05-19T23:04:17.729Z,12.07
2023-05-19T23:07:21.466Z,12.20
2023-05-19T23:10:24.669Z,11.73
2023-05-19T23:13:28.233Z,11.57
2023-05-19T23:16:31.508Z,11.60
2023-05-19T23:19:36.573Z,11.45
2023-05-19T23:22:39.771Z,11.85
2023-05-19T23:25:43.243Z,12.15
2023-05-19T23:28:46.375Z,11.82
2023-05-19T23:31:49.796Z,11.37
2023-05-19T23:34:52.920Z,12.65
2023-05-19T23:37:56.580Z,13.48
2023-05-19T23:40:59.761Z,12.90
2023-05-19T23:44:04.230Z,13.60
2023-05-19T23:47:07.544Z,13.33
2023-05-19T23:50:11.545Z,13.68
2023-05-19T23:53:14.766Z,12.82
2023-05-19T23:56:18.374Z,14.30
2023-05-19T23:59:21.493Z,14.05
